• Join FlightAware (Why Join?)
  • Login
  • US Flag 
02:29AM EDT


 

Airport Tracker/Info


-or-


 

Live Flight TrackerFlight Track Log ✈ N572CT ✈ 01-Jul-2014 ✈ KNEW - KLYH

Flight Track Log - Related Links

Times and Time Zones

All times are in EDT time to prevent confusion due to time zone crossing. See the N572CT flight status page for this flight to view local times or setup timezone preferences in your user account.

Time Position Orientation Groundspeed Altitude Reporting Facility
EDT Latitude Longitude Course Direction KTS MPH feet Rate Location/Type
02:02PM 30.0528 -90.0297 357° North 91 105 400  Level Houston Center
02:03PM 30.0800 -90.0311 357° North 100 115 1,500 1,020 Climbing Houston Center
02:04PM 30.0911 -90.0289 10° North 94 108 1,900 960 Climbing Houston Center
02:04PM 30.1111 -90.0297 358° North 100 115 2,500 660 Climbing Houston Center
02:05PM 30.1192 -90.0231 36° Northeast 101 116 2,600 660 Climbing Houston Center
02:05PM 30.1397 -90.0092 30° Northeast 128 147 3,200 720 Climbing Houston Center
02:06PM 30.1500 -90.0022 30° Northeast 119 137 3,400 780 Climbing Houston Center
02:06PM 30.1706 -89.9889 29° Northeast 130 150 4,000 720 Climbing Houston Center
02:07PM 30.1811 -89.9819 30° Northeast 123 142 4,200 660 Climbing Houston Center
02:07PM 30.2033 -89.9681 28° Northeast 130 150 4,700 720 Climbing Houston Center
02:08PM 30.2194 -89.9569 31° Northeast 127 146 5,000 660 Climbing Houston Center
02:08PM 30.2319 -89.9475 33° Northeast 136 157 5,300 660 Climbing Houston Center
02:09PM 30.2528 -89.9347 28° Northeast 133 153 5,700 660 Climbing Houston Center
02:09PM 30.2644 -89.9269 30° Northeast 136 157 6,000 540 Climbing Houston Center
02:10PM 30.2850 -89.9133 30° Northeast 133 153 6,300 600 Climbing Houston Center
02:10PM 30.2972 -89.9061 27° Northeast 134 154 6,600 540 Climbing Houston Center
02:11PM 30.3175 -89.8919 31° Northeast 133 153 6,900 180 Climbing Houston Center
02:12PM 30.3536 -89.8681 30° Northeast 143 165 7,000  Climbing Houston Center
02:13PM 30.3933 -89.8422 29° Northeast 157 181 7,000  Level Houston Center
02:14PM 30.4333 -89.8156 30° Northeast 160 184 7,000  Level Houston Center
02:15PM 30.4792 -89.7853 30° Northeast 160 184 7,000  Level Houston Center
02:16PM 30.5175 -89.7600 30° Northeast 160 184 7,000  Level Houston Center
02:17PM 30.5561 -89.7344 30° Northeast 160 184 7,000  Level Houston Center
02:18PM 30.5861 -89.6978 46° Northeast 161 185 7,000  Level Houston Center
02:19PM 30.6153 -89.6583 49° Northeast 160 184 7,000  Level Houston Center
02:20PM 30.6444 -89.6192 49° Northeast 161 185 7,000  Level Houston Center
02:21PM 30.6781 -89.5711 51° Northeast 161 185 7,000  Level Houston Center
02:22PM 30.6997 -89.5250 61° Northeast 161 185 7,000  Level Houston Center
02:23PM 30.7217 -89.4800 60° Northeast 161 185 7,000  Level Houston Center
02:24PM 30.7436 -89.4347 61° Northeast 161 185 7,000  Level Houston Center
02:25PM 30.7653 -89.3894 61° Northeast 161 185 7,000  Level Houston Center
02:26PM 30.7875 -89.3442 60° Northeast 160 184 7,000  Level Houston Center
02:27PM 30.8128 -89.2900 61° Northeast 160 184 7,000  Level Houston Center
02:29PM 30.8350 -89.2433 61° Northeast 161 185 7,000  Level Houston Center
02:30PM 30.8569 -89.1986 60° Northeast 161 185 7,000  Level Houston Center
02:31PM 30.8786 -89.1525 61° Northeast 161 185 7,000  Level Houston Center
02:32PM 30.9006 -89.1075 60° Northeast 161 185 7,000  Level Houston Center
02:33PM 30.9231 -89.0617 60° Northeast 161 185 7,000  Level Houston Center
02:34PM 30.9489 -89.0072 61° Northeast 161 185 7,000  Level Houston Center
02:35PM 30.9706 -88.9614 61° Northeast 161 185 7,000  Level Houston Center
02:36PM 31.0017 -88.9219 47° Northeast 160 184 7,000  Level Houston Center
02:37PM 31.0308 -88.8822 49° Northeast 160 184 7,000  Level Houston Center
02:38PM 31.0600 -88.8433 49° Northeast 160 184 7,000  Level Houston Center
02:39PM 31.0886 -88.8036 50° Northeast 160 184 7,000  Level Houston Center
02:40PM 31.1183 -88.7639 49° Northeast 160 184 7,000  Level Houston Center
02:41PM 31.1542 -88.7161 49° Northeast 160 184 7,000  Level Houston Center
02:42PM 31.1828 -88.6767 50° Northeast 160 184 7,000  Level Houston Center
02:43PM 31.2117 -88.6378 49° Northeast 160 184 7,000  Level Houston Center
02:44PM 31.2400 -88.5978 50° Northeast 160 184 7,000  Level Houston Center
02:45PM 31.2689 -88.5594 49° Northeast 159 183 7,000  Level Houston Center
02:46PM 31.2969 -88.5200 50° Northeast 159 183 7,000  Level Houston Center
02:47PM 31.3311 -88.4742 49° Northeast 159 183 7,000  Level Houston Center
02:48PM 31.3592 -88.4356 50° Northeast 158 182 7,000  Level Houston Center
02:49PM 31.3878 -88.3969 49° Northeast 158 182 7,000  Level Houston Center
02:50PM 31.4169 -88.3583 48° Northeast 158 182 7,000  Level Houston Center
02:51PM 31.4442 -88.3192 51° Northeast 158 182 7,000  Level Houston Center
02:52PM 31.4733 -88.2808 48° Northeast 157 181 7,000  Level Houston Center
02:53PM 31.5069 -88.2333 50° Northeast 157 181 7,000  Level Houston Center
02:54PM 31.5361 -88.1942 49° Northeast 157 181 7,000  Level Houston Center
02:55PM 31.5642 -88.1542 51° Northeast 158 182 7,000  Level Houston Center
02:57PM 31.5936 -88.1144 49° Northeast 158 182 7,000  Level Houston Center
02:58PM 31.6219 -88.0750 50° Northeast 158 182 7,000  Level Houston Center
02:59PM 31.6508 -88.0356 49° Northeast 158 182 7,000 -120 Level Houston Center
02:59PM 31.6744 -88.0089 44° Northeast 155 178 6,900 -120 Descending Atlanta Center
03:00PM 31.7031 -87.9686 50° Northeast 155 178 6,900  Level Atlanta Center
03:01PM 31.7311 -87.9308 49° Northeast 155 178 6,900  Level Atlanta Center
03:02PM 31.7597 -87.8906 50° Northeast 155 178 6,900 60 Level Atlanta Center
03:03PM 31.7694 -87.8717 59° Northeast 158 182 7,000 60 Climbing Houston Center
03:04PM 31.7981 -87.8325 49° Northeast 158 182 7,000 -60 Level Houston Center
03:05PM 31.8447 -87.7744 47° Northeast 155 178 6,900 -60 Descending Atlanta Center
03:06PM 31.8728 -87.7364 49° Northeast 155 178 6,900  Level Atlanta Center
03:07PM 31.9033 -87.6961 48° Northeast 155 178 6,900  Level Atlanta Center
03:08PM 31.9317 -87.6581 49° Northeast 155 178 6,900  Level Atlanta Center
03:09PM 31.9539 -87.6100 61° Northeast 162 186 6,900  Level Atlanta Center
03:10PM 31.9822 -87.5697 50° Northeast 162 186 6,900  Level Atlanta Center
03:11PM 32.0125 -87.5317 47° Northeast 162 186 6,900  Level Atlanta Center
03:12PM 32.0406 -87.4933 49° Northeast 156 180 6,900  Level Atlanta Center
03:13PM 32.0689 -87.4553 49° Northeast 156 180 6,900  Level Atlanta Center
03:14PM 32.0969 -87.4147 51° Northeast 156 180 6,900  Level Atlanta Center
03:15PM 32.1253 -87.3742 50° Northeast 156 180 6,900  Level Atlanta Center
03:16PM 32.1536 -87.3336 50° Northeast 156 180 6,900 120 Level Atlanta Center
03:17PM 32.1858 -87.2956 45° Northeast 156 180 7,200 480 Climbing Atlanta Center
03:18PM 32.2056 -87.2617 55° Northeast 149 171 7,900 600 Climbing Atlanta Center
03:19PM 32.2294 -87.2258 52° Northeast 139 160 8,400 480 Climbing Atlanta Center
03:20PM 32.2553 -87.1900 50° Northeast 133 153 8,900 300 Climbing Atlanta Center
03:21PM 32.2833 -87.1517 49° Northeast 138 159 9,000  Climbing Atlanta Center
03:22PM 32.3133 -87.1281 34° Northeast 166 191 9,000  Level Atlanta Center
03:22PM 32.3136 -87.1108 89° East 144 166 9,000  Level Atlanta Center
03:23PM 32.3419 -87.0700 51° Northeast 149 171 9,000  Level Atlanta Center
03:24PM 32.3722 -87.0269 50° Northeast 154 177 9,000  Level Atlanta Center
03:25PM 32.4003 -86.9858 51° Northeast 154 177 9,000  Level Atlanta Center
03:25PM 32.4172 -86.9742 30° Northeast 167 192 9,000  Level Atlanta Center
03:26PM 32.4306 -86.9428 63° Northeast 154 177 9,000  Level Atlanta Center
03:27PM 32.4586 -86.9017 51° Northeast 154 177 9,000  Level Atlanta Center
03:28PM 32.4886 -86.8608 49° Northeast 154 177 9,000  Level Atlanta Center
03:29PM 32.5208 -86.8225 45° Northeast 167 192 9,000  Level Atlanta Center
03:33PM 32.6375 -86.6511 51° Northeast 169 194 9,000  Level Atlanta Center
03:37PM 32.7514 -86.4839 51° Northeast 162 186 9,000  Level Atlanta Center
03:41PM 32.8633 -86.3092 51° Northeast 170 196 9,000  Level Atlanta Center
03:42PM 32.8629 -86.3194 51° Northeast  Level FlightAware Approximate
03:42PM 32.9017 -86.2656 44° Northeast 168 193 9,100  Level Atlanta Center
03:43PM 32.8897 -86.2798 51° Northeast  Level FlightAware Approximate
03:43PM 32.9317 -86.2267 47° Northeast 163 188 9,100  Level Atlanta Center
03:44PM 32.9617 -86.1778 54° Northeast 163 188 9,100  Level Atlanta Center
03:45PM 32.9894 -86.1389 50° Northeast 163 188 9,100  Level Atlanta Center
03:46PM 32.9786 -86.1480 51° Northeast  Level FlightAware Approximate
03:46PM 33.0194 -86.0950 51° Northeast 163 188 9,100  Level Atlanta Center
03:47PM 33.0494 -86.0536 49° Northeast 157 181 9,100  Level Atlanta Center
03:48PM 33.0853 -86.0247 34° Northeast 157 181 9,100  Level Atlanta Center
03:49PM 33.1233 -85.9958 32° Northeast 157 181 9,100  Level Atlanta Center
03:50PM 33.1572 -85.9644 38° Northeast 152 175 9,100 -60 Level Atlanta Center
03:51PM 33.1953 -85.9353 33° Northeast 152 175 9,000 -60 Descending Atlanta Center
03:52PM 33.2333 -85.9014 37° Northeast 152 175 9,000  Level Atlanta Center
03:53PM 33.2692 -85.8750 32° Northeast 152 175 9,000  Level Atlanta Center
03:54PM 33.3053 -85.8433 36° Northeast 152 175 9,000  Level Atlanta Center
03:55PM 33.3431 -85.8142 33° Northeast 152 175 9,000  Level Atlanta Center
03:56PM 33.3811 -85.7803 37° Northeast 152 175 9,000  Level Atlanta Center
03:57PM 33.4150 -85.7486 38° Northeast 152 175 9,000  Level Atlanta Center
03:58PM 33.4550 -85.7194 31° Northeast 152 175 9,000  Level Atlanta Center
03:59PM 33.4911 -85.6853 38° Northeast 152 175 9,000  Level Atlanta Center
04:00PM 33.5292 -85.6536 35° Northeast 152 175 9,000  Level Atlanta Center
04:01PM 33.5669 -85.6244 33° Northeast 152 175 9,000  Level Atlanta Center
04:02PM 33.6050 -85.5928 35° Northeast 152 175 9,000  Level Atlanta Center
04:03PM 33.6408 -85.5608 37° Northeast 152 175 9,000  Level Atlanta Center
04:04PM 33.6767 -85.5267 38° Northeast 152 175 9,000  Level Atlanta Center
04:05PM 33.7125 -85.4997 32° Northeast 152 175 9,000  Level Atlanta Center
04:06PM 33.7525 -85.4706 31° Northeast 152 175 9,000  Level Atlanta Center
04:07PM 33.7883 -85.4361 39° Northeast 152 175 9,000  Level Atlanta Center
04:08PM 33.8264 -85.4042 35° Northeast 152 175 9,000  Level Atlanta Center
04:09PM 33.8642 -85.3722 35° Northeast 152 175 9,000  Level Atlanta Center
04:10PM 33.9000 -85.3428 34° Northeast 152 175 9,000  Level Atlanta Center
04:11PM 33.9419 -85.3308 13° North 146 168 9,000  Level Atlanta Center
04:12PM 33.9858 -85.3367 354° North 146 168 9,000  Level Atlanta Center
04:13PM 34.0214 -85.3144 27° Northeast 146 168 9,000  Level Atlanta Center
04:14PM 34.0531 -85.2722 48° Northeast 141 162 9,000  Level Atlanta Center
04:15PM 34.0828 -85.2278 51° Northeast 154 177 9,000  Level Atlanta Center
04:16PM 34.1144 -85.1906 44° Northeast 160 184 9,000  Level Atlanta Center
04:17PM 34.1442 -85.1456 51° Northeast 160 184 9,000  Level Atlanta Center
04:18PM 34.1758 -85.1058 46° Northeast 160 184 9,000  Level Atlanta Center
04:19PM 34.2053 -85.0636 50° Northeast 160 184 9,000  Level Atlanta Center
04:20PM 34.2308 -85.0161 57° Northeast 160 184 9,000  Level Atlanta Center
04:21PM 34.2603 -84.9714 51° Northeast 160 184 9,000  Level Atlanta Center
04:22PM 34.2858 -84.9239 57° Northeast 160 184 9,000  Level Atlanta Center
04:23PM 34.3111 -84.8814 54° Northeast 160 184 9,000  Level Atlanta Center
04:24PM 34.3386 -84.8336 55° Northeast 160 184 9,000  Level Atlanta Center
04:25PM 34.3639 -84.7886 56° Northeast 160 184 9,000  Level Atlanta Center
04:26PM 34.3911 -84.7436 54° Northeast 160 184 9,000 -60 Level Atlanta Center
04:27PM 34.4167 -84.6961 57° Northeast 160 184 8,900 -60 Descending Atlanta Center
04:28PM 34.4439 -84.6508 54° Northeast 160 184 8,900  Level Atlanta Center
04:29PM 34.4692 -84.6056 56° Northeast 160 184 8,900  Level Atlanta Center
04:30PM 34.4944 -84.5606 56° Northeast 160 184 8,900  Level Atlanta Center
04:31PM 34.5217 -84.5153 54° Northeast 160 184 8,900  Level Atlanta Center
04:32PM 34.5447 -84.4725 57° Northeast 165 190 8,900  Level Atlanta Center
04:33PM 34.5700 -84.4272 56° Northeast 165 190 8,900  Level Atlanta Center
04:34PM 34.5953 -84.3794 57° Northeast 165 190 8,900  Level Atlanta Center
04:35PM 34.6244 -84.3317 53° Northeast 165 190 8,900  Level Atlanta Center
04:36PM 34.6497 -84.2861 56° Northeast 165 190 8,900  Level Atlanta Center
04:37PM 34.6747 -84.2433 55° Northeast 165 190 8,900  Level Atlanta Center
04:38PM 34.7042 -84.1928 55° Northeast 165 190 8,900  Level Atlanta Center
04:39PM 34.7314 -84.1450 55° Northeast 165 190 8,900  Level Atlanta Center
04:40PM 34.7564 -84.0994 56° Northeast 165 190 8,900  Level Atlanta Center
04:41PM 34.7836 -84.0489 57° Northeast 165 190 8,900  Level Atlanta Center
04:42PM 34.8128 -84.0033 52° Northeast 165 190 8,900  Level Atlanta Center
04:43PM 34.8378 -83.9528 59° Northeast 165 190 8,900  Level Atlanta Center
04:44PM 34.8647 -83.9097 53° Northeast 165 190 8,900  Level Atlanta Center
04:45PM 34.8856 -83.8642 61° Northeast 165 190 8,900  Level Atlanta Center
04:46PM 34.9128 -83.8158 56° Northeast 165 190 8,900  Level Atlanta Center
04:47PM 34.9419 -83.7675 54° Northeast 160 184 8,900  Level Atlanta Center
04:48PM 34.9708 -83.7219 52° Northeast 160 184 8,900  Level Atlanta Center
04:49PM 34.9936 -83.6736 60° Northeast 160 184 8,900  Level Atlanta Center
04:50PM 35.0208 -83.6306 52° Northeast 160 184 8,900  Level Atlanta Center
04:51PM 35.0456 -83.5822 58° Northeast 160 184 8,900  Level Atlanta Center
04:52PM 35.0683 -83.5339 60° Northeast 155 178 8,900  Level Atlanta Center
04:53PM 35.0911 -83.4906 57° Northeast 160 184 8,900  Level Atlanta Center
04:54PM 35.1200 -83.4419 54° Northeast 165 190 8,900  Level Atlanta Center
04:55PM 35.1450 -83.3936 58° Northeast 165 190 8,900  Level Atlanta Center
04:56PM 35.1675 -83.3503 58° Northeast 160 184 8,900  Level Atlanta Center
04:57PM 35.1944 -83.3042 54° Northeast 160 184 8,900  Level Atlanta Center
04:58PM 35.2233 -83.2608 51° Northeast 160 184 8,900  Level Atlanta Center
04:59PM 35.2461 -83.2097 61° Northeast 170 196 9,000  Climbing Atlanta Center
05:00PM 35.2728 -83.1686 52° Northeast 170 196 9,000  Level Atlanta Center
05:01PM 35.2997 -83.1200 56° Northeast 170 196 9,000  Level Atlanta Center
05:02PM 35.3244 -83.0714 58° Northeast 164 189 9,100  Climbing Atlanta Center
05:03PM 35.3469 -83.0278 58° Northeast 158 182 9,000 -60 Descending Atlanta Center
05:04PM 35.3736 -82.9792 56° Northeast 158 182 9,000  Level Atlanta Center
05:05PM 35.4003 -82.9356 53° Northeast 164 189 9,000  Level Atlanta Center
05:06PM 35.4228 -82.8869 60° Northeast 159 183 9,000  Level Atlanta Center
05:07PM 35.4475 -82.8431 55° Northeast 159 183 9,000  Level Atlanta Center
05:08PM 35.4783 -82.7917 54° Northeast 174 200 9,000  Level Atlanta Center
05:09PM 35.5028 -82.7453 57° Northeast 168 193 9,000  Level Atlanta Center
05:10PM 35.5272 -82.6964 58° Northeast 168 193 9,000  Level Atlanta Center
05:11PM 35.5539 -82.6528 53° Northeast 168 193 9,000  Level Atlanta Center
05:12PM 35.5783 -82.6036 59° Northeast 168 193 9,000  Level Atlanta Center
05:13PM 35.6069 -82.5547 54° Northeast 178 205 9,000  Level Atlanta Center
05:14PM 35.6336 -82.5083 55° Northeast 173 199 9,100  Climbing Atlanta Center
05:15PM 35.6581 -82.4592 59° Northeast 168 193 9,100 -60 Level Atlanta Center
05:16PM 35.6825 -82.4153 56° Northeast 168 193 9,000  Descending Atlanta Center
05:17PM 35.7069 -82.3689 57° Northeast 168 193 9,100  Climbing Atlanta Center
05:18PM 35.7292 -82.3247 58° Northeast 163 188 9,000 -60 Descending Atlanta Center
05:19PM 35.7556 -82.2756 57° Northeast 168 193 9,000  Level Atlanta Center
05:20PM 35.7819 -82.2264 57° Northeast 163 188 9,000  Level Atlanta Center
05:21PM 35.8064 -82.1797 57° Northeast 163 188 9,000  Level Atlanta Center
05:22PM 35.8328 -82.1306 56° Northeast 163 188 9,000  Level Atlanta Center
05:23PM 35.8569 -82.0839 57° Northeast 163 188 9,000  Level Atlanta Center
05:24PM 35.8833 -82.0344 57° Northeast 163 188 9,000  Level Atlanta Center
05:25PM 35.9097 -81.9878 55° Northeast 163 188 9,000  Level Atlanta Center
05:26PM 35.9339 -81.9408 58° Northeast 163 188 9,000  Level Atlanta Center
05:27PM 35.9581 -81.8942 57° Northeast 163 188 9,000  Level Atlanta Center
05:28PM 35.9844 -81.8447 57° Northeast 163 188 9,000  Level Atlanta Center
05:29PM 36.0064 -81.7978 60° Northeast 163 188 9,000  Level Atlanta Center
05:30PM 36.0328 -81.7508 55° Northeast 163 188 9,000  Level Atlanta Center
05:31PM 36.0589 -81.7014 57° Northeast 163 188 9,000  Level Atlanta Center
05:32PM 36.0853 -81.6544 55° Northeast 163 188 9,000  Level Atlanta Center
05:33PM 36.1092 -81.6050 59° Northeast 163 188 9,000  Level Atlanta Center
05:34PM 36.1353 -81.5553 57° Northeast 163 188 9,000  Level Atlanta Center
05:35PM 36.1594 -81.5083 57° Northeast 163 188 9,000  Level Atlanta Center
05:36PM 36.1856 -81.4611 56° Northeast 163 188 9,000  Level Atlanta Center
05:37PM 36.2117 -81.4114 57° Northeast 163 188 9,000  Level Atlanta Center
05:38PM 36.2356 -81.3617 59° Northeast 163 188 9,000  Level Atlanta Center
05:39PM 36.2617 -81.3119 57° Northeast 163 188 9,000  Level Atlanta Center
05:40PM 36.2875 -81.2619 57° Northeast 163 188 9,000  Level Atlanta Center
05:41PM 36.3114 -81.2147 58° Northeast 163 188 9,000  Level Atlanta Center
05:42PM 36.3375 -81.1675 56° Northeast 163 188 9,000  Level Atlanta Center
05:43PM 36.3614 -81.1178 59° Northeast 163 188 9,000  Level Atlanta Center
05:44PM 36.3872 -81.0678 57° Northeast 163 188 9,000  Level Atlanta Center
05:45PM 36.4111 -81.0206 58° Northeast 163 188 9,000  Level Atlanta Center
05:46PM 36.4369 -80.9706 57° Northeast 163 188 9,000  Level Atlanta Center
05:47PM 36.4608 -80.9256 57° Northeast 163 188 9,000  Level Atlanta Center
05:48PM 36.4889 -80.8756 55° Northeast 163 188 9,000  Level Atlanta Center
05:49PM 36.5125 -80.8256 60° Northeast 163 188 9,000  Level Atlanta Center
05:50PM 36.5383 -80.7753 57° Northeast 163 188 9,000  Level Atlanta Center
05:51PM 36.5622 -80.7278 58° Northeast 163 188 9,000  Level Atlanta Center
05:52PM 36.5858 -80.6803 58° Northeast 163 188 9,000  Level Atlanta Center
05:53PM 36.6097 -80.6353 57° Northeast 163 188 9,000  Level Atlanta Center
05:54PM 36.6314 -80.5878 60° Northeast 163 188 9,000  Level Atlanta Center
05:55PM 36.6550 -80.5403 58° Northeast 163 188 9,000  Level Atlanta Center
05:56PM 36.6806 -80.4925 56° Northeast 163 188 9,000  Level Atlanta Center
05:57PM 36.7064 -80.4422 57° Northeast 163 188 9,000  Level Atlanta Center
05:58PM 36.7319 -80.3919 58° Northeast 163 188 9,000  Level Atlanta Center
05:59PM 36.7556 -80.3442 58° Northeast 163 188 9,000  Level Atlanta Center
06:00PM 36.7811 -80.2936 58° Northeast 163 188 9,000  Level Atlanta Center
06:01PM 36.8089 -80.2458 54° Northeast 163 188 9,000  Level Atlanta Center
06:02PM 36.8322 -80.1953 60° Northeast 163 188 9,000 -120 Level Atlanta Center
06:03PM 36.8558 -80.1450 60° Northeast 163 188 8,800 -360 Descending Atlanta Center
06:04PM 36.8831 -80.0917 57° Northeast 168 193 8,300 -540 Descending Atlanta Center
06:05PM 36.9106 -80.0358 58° Northeast 168 193 7,800 -540 Descending Atlanta Center
06:06PM 36.9381 -79.9825 57° Northeast 173 199 7,300 -540 Descending Atlanta Center
06:07PM 36.9653 -79.9264 59° Northeast 173 199 6,800 -540 Descending Atlanta Center
06:08PM 36.9947 -79.8731 55° Northeast 173 199 6,300 -420 Descending Atlanta Center
06:09PM 37.0200 -79.8169 61° Northeast 173 199 6,000 -180 Descending Atlanta Center
06:10PM 37.0453 -79.7664 58° Northeast 173 199 6,000  Level Atlanta Center
06:11PM 37.0708 -79.7181 56° Northeast 173 199 6,000  Level Atlanta Center
06:12PM 37.0942 -79.6700 59° Northeast 173 199 6,000  Level Atlanta Center
06:13PM 37.1194 -79.6192 58° Northeast 173 199 6,000 -60 Level Atlanta Center
06:14PM 37.1444 -79.5656 60° Northeast 168 193 5,900 -360 Descending Atlanta Center
06:15PM 37.1697 -79.5147 58° Northeast 168 193 5,300 -660 Descending Atlanta Center
06:16PM 37.1969 -79.4611 57° Northeast 173 199 4,600 -720 Descending Atlanta Center
06:17PM 37.2222 -79.4100 58° Northeast 173 199 3,900 -660 Descending Atlanta Center
06:18PM 37.2472 -79.3592 58° Northeast 173 199 3,300 -600 Descending Atlanta Center
06:19PM 37.2725 -79.3133 55° Northeast 173 199 2,700 -600 Descending Atlanta Center
06:20PM 37.2958 -79.2647 59° Northeast 168 193 2,100 -420 Descending Atlanta Center
06:21PM 37.3233 -79.2267 48° Northeast 161 185 1,900 -300 Descending Atlanta Center
06:22PM 37.3536 -79.2011 34° Northeast 140 161 1,600 -480 Descending Atlanta Center
06:23PM 37.3347 -79.1919 159° South 58 67 1,000 -360 Descending Atlanta Center
06:24PM 37.3244 -79.1953 194° South 46 53 900 -120 Descending Atlanta Center